createdAt,value
2022-09-12T04:36:06.705Z,12.94
2022-09-12T04:46:47.717Z,12.40
2022-09-12T04:49:56.570Z,12.39
2022-09-12T04:52:59.096Z,12.46
2022-09-12T04:56:03.901Z,12.54
2022-09-12T06:19:56.968Z,15.00
2022-09-12T06:22:59.748Z,14.98
2022-09-12T06:26:18.453Z,15.22
2022-09-12T07:15:10.794Z,17.29
2022-09-12T07:18:16.917Z,17.99
2022-09-12T07:21:20.029Z,17.72
2022-09-12T07:24:22.871Z,18.42
2022-09-12T07:27:25.719Z,18.91
2022-09-12T07:30:28.592Z,20.58
2022-09-12T07:33:31.209Z,22.20
2022-09-12T07:36:34.653Z,21.17
2022-09-12T07:39:37.834Z,19.74
2022-09-12T07:42:40.646Z,18.77
2022-09-12T07:45:43.445Z,18.94
2022-09-12T07:48:50.152Z,18.27
2022-09-12T07:51:53.192Z,18.79
2022-09-12T07:54:55.965Z,19.90
2022-09-12T07:57:58.741Z,21.07
2022-09-12T08:01:04.054Z,23.21
2022-09-12T08:04:07.213Z,23.41
2022-09-12T08:33:51.861Z,24.77
2022-09-12T08:36:54.680Z,25.09
2022-09-12T08:39:57.252Z,24.93
2022-09-12T08:43:14.731Z,24.40
2022-09-12T08:46:38.557Z,24.79
2022-09-12T08:50:01.997Z,25.65
2022-09-12T08:53:13.972Z,24.70
2022-09-12T08:56:16.844Z,25.67
2022-09-12T08:59:19.290Z,24.63
2022-09-12T09:02:45.874Z,25.07
2022-09-12T09:06:02.653Z,24.72
2022-09-12T09:09:33.033Z,24.43
2022-09-12T09:12:54.079Z,23.51
2022-09-12T09:16:13.986Z,24.68
2022-09-12T09:19:27.665Z,25.53
2022-09-12T09:22:44.979Z,26.42
2022-09-12T09:25:53.989Z,25.36
2022-09-12T09:29:02.471Z,24.04
2022-09-12T09:32:14.338Z,24.71
2022-09-12T09:35:23.749Z,25.07
2022-09-12T09:38:54.148Z,25.31
2022-09-12T09:41:59.955Z,25.04
2022-09-12T09:45:12.883Z,25.05
2022-09-12T09:48:22.597Z,25.80
2022-09-12T09:51:34.381Z,26.49
2022-09-12T09:54:43.189Z,25.54
2022-09-12T09:57:47.181Z,25.03
2022-09-12T10:01:00.409Z,24.41
2022-09-12T10:04:04.005Z,24.01
2022-09-12T10:07:06.635Z,23.01
2022-09-12T10:10:36.489Z,22.72
2022-09-12T10:13:54.050Z,23.69
2022-09-12T10:20:39.908Z,23.47
2022-09-12T10:23:43.665Z,22.35
2022-09-12T10:26:55.917Z,21.83
2022-09-12T10:29:59.441Z,21.54
2022-09-12T10:33:11.631Z,21.40
2022-09-12T10:36:16.248Z,21.41
2022-09-12T10:39:19.738Z,21.03
2022-09-12T10:42:55.212Z,21.21
2022-09-12T10:45:59.368Z,21.60
2022-09-12T10:49:22.255Z,21.60
2022-09-12T10:52:25.705Z,21.77
2022-09-12T10:55:34.955Z,21.21
2022-09-12T10:58:54.639Z,21.98
2022-09-12T11:02:25.514Z,22.38
2022-09-12T11:05:38.743Z,22.39
2022-09-12T11:08:51.012Z,22.29
2022-09-12T11:12:36.624Z,22.37
2022-09-12T11:54:20.362Z,21.71
2022-09-12T12:09:15.204Z,20.18
2022-09-12T12:20:08.797Z,21.07
2022-09-12T12:23:37.439Z,21.65
2022-09-12T12:26:47.659Z,21.66
2022-09-12T12:29:55.627Z,21.58
2022-09-12T12:33:07.321Z,21.64
2022-09-12T12:36:33.920Z,21.44
2022-09-12T12:39:36.454Z,21.93
2022-09-12T12:42:39.122Z,21.95
2022-09-12T12:45:41.538Z,21.45
2022-09-12T12:49:11.151Z,21.05
2022-09-12T12:52:18.703Z,21.28
2022-09-12T12:55:26.476Z,21.60
2022-09-12T12:58:37.477Z,22.10
2022-09-12T13:01:50.425Z,22.30
2022-09-12T13:04:56.342Z,21.63
2022-09-12T13:08:11.830Z,21.40
2022-09-12T13:11:29.635Z,21.05
2022-09-12T13:14:47.846Z,21.51
2022-09-12T13:17:52.062Z,21.16
2022-09-12T13:21:16.523Z,21.34
2022-09-12T13:24:22.877Z,21.46
2022-09-12T13:27:26.018Z,21.44
2022-09-12T13:30:32.991Z,21.04
2022-09-12T13:37:40.191Z,21.39
2022-09-12T13:40:57.319Z,20.99
2022-09-12T13:47:47.080Z,20.49
2022-09-12T13:51:00.597Z,20.65
2022-09-12T13:54:05.376Z,21.01
2022-09-12T13:57:30.929Z,21.30
2022-09-12T14:08:08.646Z,21.99
2022-09-12T14:11:18.900Z,21.78
2022-09-12T14:14:31.622Z,21.76
2022-09-12T14:17:39.332Z,21.88
2022-09-12T14:20:42.778Z,21.81
2022-09-12T14:23:48.787Z,22.04
2022-09-12T14:26:55.528Z,21.80
2022-09-12T14:30:09.100Z,21.71
2022-09-12T14:33:11.545Z,22.12
2022-09-12T14:39:42.801Z,21.98
2022-09-12T14:42:49.582Z,22.18
2022-09-12T14:49:36.818Z,22.07
2022-09-12T14:52:40.158Z,21.68
2022-09-12T14:55:46.419Z,21.72
2022-09-12T14:58:50.181Z,21.57
2022-09-12T15:02:31.859Z,21.51
2022-09-12T15:05:55.229Z,21.61
2022-09-12T15:20:19.423Z,21.29
2022-09-12T15:23:51.844Z,20.94
2022-09-12T15:38:02.441Z,20.54
